sensor_id;sensor_type;location;lat;lon;timestamp;P1;durP1;ratioP1;P2;durP2;ratioP2
23720;SDS011;42950;52.134;5.578;2023-03-23T00:01:03;8.15;;;4.60;;
23720;SDS011;42950;52.134;5.578;2023-03-23T00:03:30;8.10;;;4.93;;
23720;SDS011;42950;52.134;5.578;2023-03-23T00:05:59;9.48;;;4.88;;
23720;SDS011;42950;52.134;5.578;2023-03-23T00:08:29;9.07;;;4.93;;
23720;SDS011;42950;52.134;5.578;2023-03-23T00:10:57;8.88;;;4.72;;
23720;SDS011;42950;52.134;5.578;2023-03-23T00:13:25;7.88;;;4.78;;
23720;SDS011;42950;52.134;5.578;2023-03-23T00:15:52;10.80;;;4.95;;
23720;SDS011;42950;52.134;5.578;2023-03-23T00:18:19;7.45;;;4.43;;
23720;SDS011;42950;52.134;5.578;2023-03-23T00:20:47;7.35;;;4.65;;
23720;SDS011;42950;52.134;5.578;2023-03-23T00:23:17;6.95;;;4.72;;
23720;SDS011;42950;52.134;5.578;2023-03-23T00:25:47;4.85;;;4.07;;
23720;SDS011;42950;52.134;5.578;2023-03-23T00:28:15;8.82;;;5.18;;
23720;SDS011;42950;52.134;5.578;2023-03-23T00:30:42;6.60;;;4.40;;
23720;SDS011;42950;52.134;5.578;2023-03-23T00:33:09;6.18;;;3.92;;
23720;SDS011;42950;52.134;5.578;2023-03-23T00:35:38;9.57;;;4.65;;
23720;SDS011;42950;52.134;5.578;2023-03-23T00:38:05;7.95;;;4.40;;
23720;SDS011;42950;52.134;5.578;2023-03-23T00:40:33;7.22;;;4.10;;
23720;SDS011;42950;52.134;5.578;2023-03-23T00:43:00;8.30;;;4.03;;
23720;SDS011;42950;52.134;5.578;2023-03-23T00:45:28;8.75;;;3.70;;
23720;SDS011;42950;52.134;5.578;2023-03-23T00:47:54;9.00;;;4.53;;
23720;SDS011;42950;52.134;5.578;2023-03-23T00:50:21;7.43;;;3.85;;
23720;SDS011;42950;52.134;5.578;2023-03-23T00:52:47;8.52;;;3.80;;
23720;SDS011;42950;52.134;5.578;2023-03-23T00:55:14;5.78;;;3.45;;
23720;SDS011;42950;52.134;5.578;2023-03-23T00:57:40;8.30;;;3.88;;
23720;SDS011;42950;52.134;5.578;2023-03-23T01:00:06;7.07;;;3.50;;
23720;SDS011;42950;52.134;5.578;2023-03-23T01:02:35;4.78;;;3.47;;
23720;SDS011;42950;52.134;5.578;2023-03-23T01:05:05;10.07;;;3.90;;
23720;SDS011;42950;52.134;5.578;2023-03-23T01:07:31;4.75;;;3.42;;
23720;SDS011;42950;52.134;5.578;2023-03-23T01:10:00;7.20;;;3.88;;
23720;SDS011;42950;52.134;5.578;2023-03-23T01:12:26;8.07;;;4.00;;
23720;SDS011;42950;52.134;5.578;2023-03-23T01:14:53;7.55;;;3.45;;
23720;SDS011;42950;52.134;5.578;2023-03-23T01:17:19;7.05;;;3.40;;
23720;SDS011;42950;52.134;5.578;2023-03-23T01:19:46;6.63;;;3.40;;
23720;SDS011;42950;52.134;5.578;2023-03-23T01:22:11;4.65;;;3.28;;
23720;SDS011;42950;52.134;5.578;2023-03-23T01:24:37;6.00;;;3.35;;
23720;SDS011;42950;52.134;5.578;2023-03-23T01:27:03;5.30;;;3.28;;
23720;SDS011;42950;52.134;5.578;2023-03-23T01:29:34;7.75;;;3.25;;
23720;SDS011;42950;52.134;5.578;2023-03-23T01:32:01;5.88;;;2.60;;
23720;SDS011;42950;52.134;5.578;2023-03-23T01:34:27;4.60;;;3.05;;
23720;SDS011;42950;52.134;5.578;2023-03-23T01:36:53;6.47;;;2.80;;
23720;SDS011;42950;52.134;5.578;2023-03-23T01:39:20;3.75;;;3.20;;
23720;SDS011;42950;52.134;5.578;2023-03-23T01:41:47;7.57;;;3.17;;
23720;SDS011;42950;52.134;5.578;2023-03-23T01:46:41;4.35;;;2.80;;
23720;SDS011;42950;52.134;5.578;2023-03-23T01:49:08;5.90;;;3.22;;
23720;SDS011;42950;52.134;5.578;2023-03-23T01:51:47;4.43;;;2.78;;
23720;SDS011;42950;52.134;5.578;2023-03-23T01:54:17;6.05;;;3.15;;
23720;SDS011;42950;52.134;5.578;2023-03-23T01:56:57;6.95;;;3.00;;
23720;SDS011;42950;52.134;5.578;2023-03-23T01:59:27;4.78;;;3.13;;
23720;SDS011;42950;52.134;5.578;2023-03-23T02:01:54;7.22;;;3.45;;
23720;SDS011;42950;52.134;5.578;2023-03-23T02:04:20;6.93;;;3.42;;
23720;SDS011;42950;52.134;5.578;2023-03-23T02:06:50;5.68;;;3.58;;
23720;SDS011;42950;52.134;5.578;2023-03-23T02:09:17;7.45;;;3.65;;
23720;SDS011;42950;52.134;5.578;2023-03-23T02:11:44;4.65;;;3.30;;
23720;SDS011;42950;52.134;5.578;2023-03-23T02:14:11;4.40;;;3.45;;
23720;SDS011;42950;52.134;5.578;2023-03-23T02:31:21;3.97;;;3.58;;
23720;SDS011;42950;52.134;5.578;2023-03-23T02:36:55;5.63;;;3.88;;
23720;SDS011;42950;52.134;5.578;2023-03-23T02:39:34;6.07;;;3.78;;
23720;SDS011;42950;52.134;5.578;2023-03-23T02:42:10;4.85;;;3.88;;
23720;SDS011;42950;52.134;5.578;2023-03-23T02:44:41;5.40;;;3.70;;
23720;SDS011;42950;52.134;5.578;2023-03-23T02:47:11;5.13;;;4.15;;
23720;SDS011;42950;52.134;5.578;2023-03-23T02:49:42;4.18;;;3.78;;
23720;SDS011;42950;52.134;5.578;2023-03-23T02:52:14;5.25;;;3.97;;
23720;SDS011;42950;52.134;5.578;2023-03-23T02:54:44;4.95;;;3.65;;
23720;SDS011;42950;52.134;5.578;2023-03-23T02:57:12;5.30;;;3.97;;
23720;SDS011;42950;52.134;5.578;2023-03-23T02:59:38;4.50;;;4.10;;
23720;SDS011;42950;52.134;5.578;2023-03-23T03:04:33;5.28;;;4.10;;
23720;SDS011;42950;52.134;5.578;2023-03-23T03:07:47;6.53;;;3.97;;
23720;SDS011;42950;52.134;5.578;2023-03-23T03:09:53;6.40;;;4.20;;
23720;SDS011;42950;52.134;5.578;2023-03-23T03:15:06;4.43;;;3.55;;
23720;SDS011;42950;52.134;5.578;2023-03-23T03:17:44;5.65;;;3.90;;
23720;SDS011;42950;52.134;5.578;2023-03-23T03:20:17;7.28;;;3.80;;
23720;SDS011;42950;52.134;5.578;2023-03-23T03:22:50;6.03;;;4.07;;
23720;SDS011;42950;52.134;5.578;2023-03-23T03:25:17;5.90;;;3.70;;
23720;SDS011;42950;52.134;5.578;2023-03-23T03:27:45;6.57;;;3.55;;
23720;SDS011;42950;52.134;5.578;2023-03-23T03:30:16;5.25;;;3.38;;
23720;SDS011;42950;52.134;5.578;2023-03-23T03:32:48;8.27;;;3.30;;
23720;SDS011;42950;52.134;5.578;2023-03-23T03:35:19;6.30;;;3.85;;
23720;SDS011;42950;52.134;5.578;2023-03-23T03:37:49;8.73;;;3.45;;
23720;SDS011;42950;52.134;5.578;2023-03-23T03:40:17;7.18;;;3.20;;
23720;SDS011;42950;52.134;5.578;2023-03-23T03:42:45;8.75;;;2.97;;
23720;SDS011;42950;52.134;5.578;2023-03-23T03:45:12;5.80;;;3.20;;
23720;SDS011;42950;52.134;5.578;2023-03-23T03:47:42;6.40;;;3.25;;
23720;SDS011;42950;52.134;5.578;2023-03-23T03:50:08;4.28;;;3.00;;
23720;SDS011;42950;52.134;5.578;2023-03-23T03:52:35;5.22;;;3.20;;
23720;SDS011;42950;52.134;5.578;2023-03-23T03:55:01;8.50;;;2.70;;
23720;SDS011;42950;52.134;5.578;2023-03-23T03:57:27;5.03;;;2.70;;
23720;SDS011;42950;52.134;5.578;2023-03-23T03:59:52;5.93;;;3.20;;
23720;SDS011;42950;52.134;5.578;2023-03-23T04:02:18;5.25;;;2.70;;
23720;SDS011;42950;52.134;5.578;2023-03-23T04:04:47;6.75;;;3.13;;
23720;SDS011;42950;52.134;5.578;2023-03-23T04:07:16;6.30;;;3.05;;
23720;SDS011;42950;52.134;5.578;2023-03-23T04:09:47;5.30;;;2.95;;
23720;SDS011;42950;52.134;5.578;2023-03-23T04:12:14;5.60;;;2.88;;
23720;SDS011;42950;52.134;5.578;2023-03-23T04:14:40;5.18;;;3.08;;
23720;SDS011;42950;52.134;5.578;2023-03-23T04:17:06;4.93;;;2.90;;
23720;SDS011;42950;52.134;5.578;2023-03-23T04:19:34;4.53;;;3.08;;
23720;SDS011;42950;52.134;5.578;2023-03-23T04:22:02;6.35;;;2.80;;
23720;SDS011;42950;52.134;5.578;2023-03-23T04:24:31;5.28;;;2.75;;
23720;SDS011;42950;52.134;5.578;2023-03-23T04:26:58;7.18;;;2.80;;
23720;SDS011;42950;52.134;5.578;2023-03-23T04:29:25;7.43;;;2.88;;
23720;SDS011;42950;52.134;5.578;2023-03-23T04:31:51;6.25;;;2.95;;
23720;SDS011;42950;52.134;5.578;2023-03-23T04:34:18;8.65;;;3.28;;
23720;SDS011;42950;52.134;5.578;2023-03-23T04:36:44;5.32;;;2.70;;
23720;SDS011;42950;52.134;5.578;2023-03-23T04:39:11;5.25;;;2.67;;
23720;SDS011;42950;52.134;5.578;2023-03-23T04:41:39;7.15;;;2.58;;
23720;SDS011;42950;52.134;5.578;2023-03-23T04:44:05;8.93;;;2.85;;
23720;SDS011;42950;52.134;5.578;2023-03-23T04:46:32;6.72;;;2.13;;
23720;SDS011;42950;52.134;5.578;2023-03-23T04:48:58;8.05;;;2.22;;
23720;SDS011;42950;52.134;5.578;2023-03-23T04:51:25;9.43;;;2.40;;
23720;SDS011;42950;52.134;5.578;2023-03-23T04:53:53;6.95;;;2.70;;
23720;SDS011;42950;52.134;5.578;2023-03-23T04:56:20;6.80;;;2.33;;
23720;SDS011;42950;52.134;5.578;2023-03-23T04:58:46;7.18;;;2.05;;
23720;SDS011;42950;52.134;5.578;2023-03-23T05:01:12;8.40;;;2.20;;
23720;SDS011;42950;52.134;5.578;2023-03-23T05:03:43;9.32;;;2.50;;
23720;SDS011;42950;52.134;5.578;2023-03-23T05:06:09;4.82;;;1.80;;
23720;SDS011;42950;52.134;5.578;2023-03-23T05:08:35;7.80;;;2.05;;
23720;SDS011;42950;52.134;5.578;2023-03-23T05:11:05;10.95;;;2.03;;
23720;SDS011;42950;52.134;5.578;2023-03-23T05:13:31;10.02;;;2.45;;
23720;SDS011;42950;52.134;5.578;2023-03-23T05:15:58;8.18;;;2.15;;
23720;SDS011;42950;52.134;5.578;2023-03-23T05:18:27;12.45;;;2.25;;
23720;SDS011;42950;52.134;5.578;2023-03-23T05:20:54;8.95;;;2.00;;
23720;SDS011;42950;52.134;5.578;2023-03-23T05:23:19;8.45;;;2.00;;
23720;SDS011;42950;52.134;5.578;2023-03-23T05:25:55;8.80;;;2.28;;
23720;SDS011;42950;52.134;5.578;2023-03-23T05:28:23;9.85;;;2.40;;
23720;SDS011;42950;52.134;5.578;2023-03-23T05:30:48;7.93;;;2.10;;
23720;SDS011;42950;52.134;5.578;2023-03-23T05:33:14;9.50;;;2.20;;
23720;SDS011;42950;52.134;5.578;2023-03-23T05:35:40;7.43;;;2.03;;
23720;SDS011;42950;52.134;5.578;2023-03-23T05:38:06;10.57;;;2.58;;
23720;SDS011;42950;52.134;5.578;2023-03-23T05:40:32;9.48;;;2.17;;
23720;SDS011;42950;52.134;5.578;2023-03-23T05:42:57;6.75;;;1.90;;
23720;SDS011;42950;52.134;5.578;2023-03-23T05:45:24;6.85;;;2.03;;
23720;SDS011;42950;52.134;5.578;2023-03-23T05:47:51;10.93;;;2.80;;
23720;SDS011;42950;52.134;5.578;2023-03-23T05:50:17;9.35;;;2.40;;
23720;SDS011;42950;52.134;5.578;2023-03-23T05:52:43;10.18;;;2.13;;
23720;SDS011;42950;52.134;5.578;2023-03-23T05:55:09;8.10;;;2.30;;
23720;SDS011;42950;52.134;5.578;2023-03-23T05:57:35;11.80;;;2.08;;
23720;SDS011;42950;52.134;5.578;2023-03-23T06:00:03;9.70;;;2.47;;
23720;SDS011;42950;52.134;5.578;2023-03-23T06:02:39;8.88;;;2.22;;
23720;SDS011;42950;52.134;5.578;2023-03-23T06:05:05;9.90;;;2.40;;
23720;SDS011;42950;52.134;5.578;2023-03-23T06:07:31;9.23;;;2.05;;
23720;SDS011;42950;52.134;5.578;2023-03-23T06:09:57;8.82;;;2.42;;
23720;SDS011;42950;52.134;5.578;2023-03-23T06:12:24;12.15;;;2.55;;
23720;SDS011;42950;52.134;5.578;2023-03-23T06:14:49;11.40;;;2.78;;
23720;SDS011;42950;52.134;5.578;2023-03-23T06:17:17;16.17;;;3.17;;
23720;SDS011;42950;52.134;5.578;2023-03-23T06:19:43;12.93;;;2.97;;
23720;SDS011;42950;52.134;5.578;2023-03-23T06:22:10;10.30;;;3.03;;
23720;SDS011;42950;52.134;5.578;2023-03-23T06:24:37;12.43;;;3.10;;
23720;SDS011;42950;52.134;5.578;2023-03-23T06:27:02;14.23;;;3.10;;
23720;SDS011;42950;52.134;5.578;2023-03-23T06:29:28;14.32;;;2.80;;
23720;SDS011;42950;52.134;5.578;2023-03-23T06:31:55;7.88;;;3.17;;
23720;SDS011;42950;52.134;5.578;2023-03-23T06:34:24;10.85;;;2.85;;
23720;SDS011;42950;52.134;5.578;2023-03-23T06:36:51;13.85;;;3.30;;
23720;SDS011;42950;52.134;5.578;2023-03-23T06:39:18;18.75;;;3.03;;
23720;SDS011;42950;52.134;5.578;2023-03-23T06:41:44;10.50;;;3.25;;
23720;SDS011;42950;52.134;5.578;2023-03-23T06:44:11;12.35;;;2.97;;
23720;SDS011;42950;52.134;5.578;2023-03-23T06:46:39;11.65;;;2.80;;
23720;SDS011;42950;52.134;5.578;2023-03-23T06:49:07;12.25;;;3.15;;
23720;SDS011;42950;52.134;5.578;2023-03-23T06:51:33;13.40;;;3.30;;
23720;SDS011;42950;52.134;5.578;2023-03-23T06:53:59;9.18;;;2.92;;
23720;SDS011;42950;52.134;5.578;2023-03-23T06:56:25;13.80;;;3.05;;
23720;SDS011;42950;52.134;5.578;2023-03-23T06:58:52;13.65;;;3.15;;
23720;SDS011;42950;52.134;5.578;2023-03-23T07:01:18;14.52;;;2.92;;
23720;SDS011;42950;52.134;5.578;2023-03-23T07:03:44;10.60;;;2.88;;
23720;SDS011;42950;52.134;5.578;2023-03-23T07:06:10;13.02;;;3.05;;
23720;SDS011;42950;52.134;5.578;2023-03-23T07:08:36;15.13;;;3.25;;
23720;SDS011;42950;52.134;5.578;2023-03-23T07:11:02;17.17;;;2.80;;
23720;SDS011;42950;52.134;5.578;2023-03-23T07:13:28;13.13;;;2.85;;
23720;SDS011;42950;52.134;5.578;2023-03-23T07:15:54;10.05;;;2.30;;
23720;SDS011;42950;52.134;5.578;2023-03-23T07:18:20;13.68;;;2.90;;
23720;SDS011;42950;52.134;5.578;2023-03-23T07:20:47;8.55;;;2.38;;
23720;SDS011;42950;52.134;5.578;2023-03-23T07:23:16;10.20;;;2.65;;
23720;SDS011;42950;52.134;5.578;2023-03-23T07:25:43;15.75;;;2.90;;
23720;SDS011;42950;52.134;5.578;2023-03-23T07:28:10;8.82;;;2.53;;
23720;SDS011;42950;52.134;5.578;2023-03-23T07:30:37;12.70;;;2.80;;
23720;SDS011;42950;52.134;5.578;2023-03-23T07:33:04;12.45;;;2.63;;
23720;SDS011;42950;52.134;5.578;2023-03-23T07:35:31;10.73;;;2.65;;
23720;SDS011;42950;52.134;5.578;2023-03-23T07:37:56;11.40;;;2.42;;
23720;SDS011;42950;52.134;5.578;2023-03-23T07:40:22;11.85;;;2.25;;
23720;SDS011;42950;52.134;5.578;2023-03-23T07:42:51;8.25;;;2.33;;
23720;SDS011;42950;52.134;5.578;2023-03-23T07:45:18;11.20;;;2.50;;
23720;SDS011;42950;52.134;5.578;2023-03-23T07:47:44;8.60;;;2.00;;
23720;SDS011;42950;52.134;5.578;2023-03-23T07:50:10;9.98;;;2.35;;
23720;SDS011;42950;52.134;5.578;2023-03-23T07:52:37;9.55;;;2.75;;
23720;SDS011;42950;52.134;5.578;2023-03-23T07:55:03;10.50;;;2.90;;
23720;SDS011;42950;52.134;5.578;2023-03-23T07:57:30;10.95;;;2.80;;
23720;SDS011;42950;52.134;5.578;2023-03-23T07:59:57;10.13;;;2.53;;
23720;SDS011;42950;52.134;5.578;2023-03-23T08:02:23;7.93;;;2.38;;
23720;SDS011;42950;52.134;5.578;2023-03-23T08:04:49;12.57;;;2.28;;
23720;SDS011;42950;52.134;5.578;2023-03-23T08:07:15;8.90;;;2.53;;
23720;SDS011;42950;52.134;5.578;2023-03-23T08:09:42;6.95;;;2.30;;
23720;SDS011;42950;52.134;5.578;2023-03-23T08:12:08;10.10;;;2.33;;
23720;SDS011;42950;52.134;5.578;2023-03-23T08:14:33;9.20;;;2.33;;
23720;SDS011;42950;52.134;5.578;2023-03-23T08:16:59;8.60;;;2.08;;
23720;SDS011;42950;52.134;5.578;2023-03-23T08:19:25;8.68;;;2.40;;
23720;SDS011;42950;52.134;5.578;2023-03-23T08:21:51;7.40;;;2.50;;
23720;SDS011;42950;52.134;5.578;2023-03-23T08:24:18;7.53;;;2.60;;
23720;SDS011;42950;52.134;5.578;2023-03-23T08:26:44;7.82;;;2.28;;
23720;SDS011;42950;52.134;5.578;2023-03-23T08:29:09;11.00;;;2.67;;
23720;SDS011;42950;52.134;5.578;2023-03-23T08:31:35;7.32;;;1.83;;
23720;SDS011;42950;52.134;5.578;2023-03-23T08:34:02;10.82;;;2.35;;
23720;SDS011;42950;52.134;5.578;2023-03-23T08:36:29;8.40;;;2.78;;
23720;SDS011;42950;52.134;5.578;2023-03-23T08:38:58;4.97;;;1.85;;
23720;SDS011;42950;52.134;5.578;2023-03-23T08:41:24;6.20;;;2.17;;
23720;SDS011;42950;52.134;5.578;2023-03-23T08:43:50;7.47;;;2.30;;
23720;SDS011;42950;52.134;5.578;2023-03-23T08:46:17;11.32;;;2.78;;
23720;SDS011;42950;52.134;5.578;2023-03-23T08:48:44;8.15;;;2.22;;
23720;SDS011;42950;52.134;5.578;2023-03-23T08:51:10;7.57;;;2.00;;
23720;SDS011;42950;52.134;5.578;2023-03-23T08:53:36;9.65;;;2.88;;
23720;SDS011;42950;52.134;5.578;2023-03-23T08:56:05;10.75;;;2.78;;
23720;SDS011;42950;52.134;5.578;2023-03-23T08:58:33;8.77;;;2.72;;
23720;SDS011;42950;52.134;5.578;2023-03-23T09:00:59;11.35;;;3.15;;
23720;SDS011;42950;52.134;5.578;2023-03-23T09:03:25;9.75;;;2.47;;
23720;SDS011;42950;52.134;5.578;2023-03-23T09:05:50;9.95;;;2.60;;
23720;SDS011;42950;52.134;5.578;2023-03-23T09:08:16;10.27;;;2.80;;
23720;SDS011;42950;52.134;5.578;2023-03-23T09:10:42;8.85;;;2.72;;
23720;SDS011;42950;52.134;5.578;2023-03-23T09:13:08;8.63;;;2.85;;
23720;SDS011;42950;52.134;5.578;2023-03-23T09:15:33;8.55;;;2.53;;
23720;SDS011;42950;52.134;5.578;2023-03-23T09:17:59;11.80;;;2.90;;
23720;SDS011;42950;52.134;5.578;2023-03-23T09:20:26;8.75;;;2.63;;
23720;SDS011;42950;52.134;5.578;2023-03-23T09:22:53;10.20;;;2.80;;
23720;SDS011;42950;52.134;5.578;2023-03-23T09:25:20;9.07;;;2.67;;
23720;SDS011;42950;52.134;5.578;2023-03-23T09:27:51;13.27;;;3.40;;
23720;SDS011;42950;52.134;5.578;2023-03-23T09:30:21;9.50;;;2.72;;
23720;SDS011;42950;52.134;5.578;2023-03-23T09:32:51;13.48;;;3.17;;
23720;SDS011;42950;52.134;5.578;2023-03-23T09:35:18;12.73;;;3.30;;
23720;SDS011;42950;52.134;5.578;2023-03-23T09:37:46;15.73;;;2.85;;
23720;SDS011;42950;52.134;5.578;2023-03-23T09:40:14;12.10;;;2.80;;
23720;SDS011;42950;52.134;5.578;2023-03-23T09:53:53;8.48;;;2.35;;
23720;SDS011;42950;52.134;5.578;2023-03-23T09:56:22;11.32;;;3.15;;
23720;SDS011;42950;52.134;5.578;2023-03-23T09:58:54;12.32;;;2.40;;
23720;SDS011;42950;52.134;5.578;2023-03-23T10:01:28;11.00;;;2.45;;
23720;SDS011;42950;52.134;5.578;2023-03-23T10:04:01;13.95;;;2.60;;
23720;SDS011;42950;52.134;5.578;2023-03-23T10:06:32;11.98;;;2.58;;
23720;SDS011;42950;52.134;5.578;2023-03-23T10:08:58;12.13;;;2.75;;
23720;SDS011;42950;52.134;5.578;2023-03-23T10:16:51;11.52;;;2.25;;
23720;SDS011;42950;52.134;5.578;2023-03-23T10:19:41;15.75;;;3.13;;
23720;SDS011;42950;52.134;5.578;2023-03-23T10:22:11;11.63;;;2.65;;
23720;SDS011;42950;52.134;5.578;2023-03-23T10:24:43;11.55;;;2.78;;
23720;SDS011;42950;52.134;5.578;2023-03-23T10:27:32;10.07;;;2.70;;
23720;SDS011;42950;52.134;5.578;2023-03-23T10:30:27;10.50;;;2.13;;
23720;SDS011;42950;52.134;5.578;2023-03-23T10:33:22;14.38;;;2.17;;
23720;SDS011;42950;52.134;5.578;2023-03-23T10:38:31;14.77;;;2.85;;
23720;SDS011;42950;52.134;5.578;2023-03-23T10:41:03;11.82;;;2.58;;
23720;SDS011;42950;52.134;5.578;2023-03-23T10:43:34;16.33;;;2.85;;
23720;SDS011;42950;52.134;5.578;2023-03-23T10:46:02;16.83;;;3.17;;
23720;SDS011;42950;52.134;5.578;2023-03-23T10:48:37;13.85;;;2.97;;
23720;SDS011;42950;52.134;5.578;2023-03-23T10:51:04;10.10;;;3.00;;
23720;SDS011;42950;52.134;5.578;2023-03-23T10:53:36;15.00;;;2.63;;
23720;SDS011;42950;52.134;5.578;2023-03-23T10:56:20;13.15;;;2.58;;
23720;SDS011;42950;52.134;5.578;2023-03-23T10:58:58;10.00;;;2.17;;
23720;SDS011;42950;52.134;5.578;2023-03-23T11:01:28;10.02;;;2.53;;
23720;SDS011;42950;52.134;5.578;2023-03-23T11:03:56;9.70;;;2.55;;
23720;SDS011;42950;52.134;5.578;2023-03-23T11:06:32;11.55;;;2.40;;
23720;SDS011;42950;52.134;5.578;2023-03-23T11:09:13;11.45;;;2.45;;
23720;SDS011;42950;52.134;5.578;2023-03-23T11:11:43;11.13;;;2.45;;
23720;SDS011;42950;52.134;5.578;2023-03-23T11:16:55;11.73;;;2.40;;
23720;SDS011;42950;52.134;5.578;2023-03-23T11:19:33;13.02;;;2.80;;
23720;SDS011;42950;52.134;5.578;2023-03-23T11:24:33;11.70;;;2.78;;
23720;SDS011;42950;52.134;5.578;2023-03-23T11:27:10;12.80;;;2.40;;
23720;SDS011;42950;52.134;5.578;2023-03-23T11:29:37;8.63;;;2.15;;
23720;SDS011;42950;52.134;5.578;2023-03-23T11:32:14;10.13;;;2.35;;
23720;SDS011;42950;52.134;5.578;2023-03-23T11:34:42;9.73;;;2.45;;
23720;SDS011;42950;52.134;5.578;2023-03-23T11:43:07;8.57;;;2.22;;
23720;SDS011;42950;52.134;5.578;2023-03-23T11:48:03;12.30;;;2.72;;
23720;SDS011;42950;52.134;5.578;2023-03-23T11:53:45;12.18;;;2.92;;
23720;SDS011;42950;52.134;5.578;2023-03-23T11:56:37;9.77;;;2.65;;
23720;SDS011;42950;52.134;5.578;2023-03-23T11:59:13;10.70;;;2.40;;
23720;SDS011;42950;52.134;5.578;2023-03-23T12:04:33;13.00;;;2.53;;
23720;SDS011;42950;52.134;5.578;2023-03-23T12:13:09;13.93;;;2.70;;
23720;SDS011;42950;52.134;5.578;2023-03-23T12:23:41;10.23;;;2.60;;
23720;SDS011;42950;52.134;5.578;2023-03-23T12:26:31;14.27;;;2.60;;
23720;SDS011;42950;52.134;5.578;2023-03-23T12:35:26;13.98;;;2.72;;
23720;SDS011;42950;52.134;5.578;2023-03-23T12:46:33;15.30;;;3.05;;
23720;SDS011;42950;52.134;5.578;2023-03-23T12:52:28;10.75;;;2.47;;
23720;SDS011;42950;52.134;5.578;2023-03-23T12:55:19;9.35;;;2.58;;
23720;SDS011;42950;52.134;5.578;2023-03-23T12:57:56;7.10;;;1.92;;
23720;SDS011;42950;52.134;5.578;2023-03-23T13:03:26;9.93;;;2.13;;
23720;SDS011;42950;52.134;5.578;2023-03-23T13:08:47;9.85;;;2.08;;
23720;SDS011;42950;52.134;5.578;2023-03-23T13:11:19;7.53;;;1.88;;
23720;SDS011;42950;52.134;5.578;2023-03-23T13:13:54;6.72;;;2.08;;
23720;SDS011;42950;52.134;5.578;2023-03-23T13:22:13;8.98;;;2.38;;
23720;SDS011;42950;52.134;5.578;2023-03-23T13:24:36;8.48;;;2.00;;
23720;SDS011;42950;52.134;5.578;2023-03-23T13:27:07;7.75;;;2.03;;
23720;SDS011;42950;52.134;5.578;2023-03-23T13:29:34;7.75;;;1.75;;
23720;SDS011;42950;52.134;5.578;2023-03-23T13:32:15;9.35;;;2.50;;
23720;SDS011;42950;52.134;5.578;2023-03-23T13:34:42;9.52;;;1.90;;
23720;SDS011;42950;52.134;5.578;2023-03-23T13:37:26;11.57;;;1.88;;
23720;SDS011;42950;52.134;5.578;2023-03-23T13:42:25;11.13;;;2.20;;
23720;SDS011;42950;52.134;5.578;2023-03-23T13:44:57;8.63;;;2.00;;
23720;SDS011;42950;52.134;5.578;2023-03-23T13:47:41;11.02;;;2.33;;
23720;SDS011;42950;52.134;5.578;2023-03-23T13:58:11;9.68;;;2.42;;
23720;SDS011;42950;52.134;5.578;2023-03-23T14:00:50;10.23;;;2.00;;
23720;SDS011;42950;52.134;5.578;2023-03-23T14:03:38;9.05;;;2.17;;
23720;SDS011;42950;52.134;5.578;2023-03-23T14:06:07;8.13;;;2.50;;
23720;SDS011;42950;52.134;5.578;2023-03-23T14:08:40;9.20;;;2.10;;
23720;SDS011;42950;52.134;5.578;2023-03-23T14:11:14;7.28;;;2.40;;
23720;SDS011;42950;52.134;5.578;2023-03-23T14:16:35;8.57;;;2.50;;
23720;SDS011;42950;52.134;5.578;2023-03-23T14:19:17;7.93;;;2.60;;
23720;SDS011;42950;52.134;5.578;2023-03-23T14:21:49;9.05;;;2.50;;
23720;SDS011;42950;52.134;5.578;2023-03-23T14:24:17;13.55;;;3.45;;
23720;SDS011;42950;52.134;5.578;2023-03-23T14:27:01;9.57;;;3.03;;
23720;SDS011;42950;52.134;5.578;2023-03-23T14:29:35;7.70;;;2.90;;
23720;SDS011;42950;52.134;5.578;2023-03-23T14:32:01;8.43;;;2.30;;
23720;SDS011;42950;52.134;5.578;2023-03-23T14:34:29;7.82;;;2.00;;
23720;SDS011;42950;52.134;5.578;2023-03-23T14:36:56;8.82;;;2.50;;
23720;SDS011;42950;52.134;5.578;2023-03-23T14:39:27;9.23;;;2.40;;
23720;SDS011;42950;52.134;5.578;2023-03-23T14:42:00;6.47;;;1.90;;
23720;SDS011;42950;52.134;5.578;2023-03-23T14:44:29;6.35;;;2.05;;
23720;SDS011;42950;52.134;5.578;2023-03-23T14:46:57;7.93;;;2.40;;
23720;SDS011;42950;52.134;5.578;2023-03-23T14:49:30;8.80;;;2.25;;
23720;SDS011;42950;52.134;5.578;2023-03-23T14:52:02;8.88;;;2.30;;
23720;SDS011;42950;52.134;5.578;2023-03-23T14:54:39;9.13;;;2.35;;
23720;SDS011;42950;52.134;5.578;2023-03-23T14:59:45;8.80;;;2.53;;
23720;SDS011;42950;52.134;5.578;2023-03-23T15:02:13;9.65;;;2.30;;
23720;SDS011;42950;52.134;5.578;2023-03-23T15:04:52;9.52;;;2.63;;
23720;SDS011;42950;52.134;5.578;2023-03-23T15:07:40;9.82;;;2.15;;
23720;SDS011;42950;52.134;5.578;2023-03-23T15:10:08;6.28;;;2.03;;
23720;SDS011;42950;52.134;5.578;2023-03-23T15:12:39;9.65;;;2.22;;
23720;SDS011;42950;52.134;5.578;2023-03-23T15:15:16;7.97;;;1.98;;
23720;SDS011;42950;52.134;5.578;2023-03-23T15:17:49;8.88;;;2.08;;
23720;SDS011;42950;52.134;5.578;2023-03-23T15:22:47;11.85;;;2.00;;
23720;SDS011;42950;52.134;5.578;2023-03-23T15:28:22;8.23;;;2.17;;
23720;SDS011;42950;52.134;5.578;2023-03-23T15:30:59;9.93;;;2.15;;
23720;SDS011;42950;52.134;5.578;2023-03-23T15:33:33;9.23;;;2.08;;
23720;SDS011;42950;52.134;5.578;2023-03-23T15:36:13;9.73;;;1.88;;
23720;SDS011;42950;52.134;5.578;2023-03-23T15:38:45;11.68;;;2.42;;
23720;SDS011;42950;52.134;5.578;2023-03-23T15:41:25;7.70;;;2.00;;
23720;SDS011;42950;52.134;5.578;2023-03-23T15:43:56;10.65;;;2.40;;
23720;SDS011;42950;52.134;5.578;2023-03-23T15:46:24;9.23;;;2.53;;
23720;SDS011;42950;52.134;5.578;2023-03-23T15:51:27;9.85;;;2.10;;
23720;SDS011;42950;52.134;5.578;2023-03-23T15:53:56;14.45;;;2.58;;
23720;SDS011;42950;52.134;5.578;2023-03-23T15:56:22;10.75;;;2.72;;
23720;SDS011;42950;52.134;5.578;2023-03-23T15:58:48;12.10;;;2.67;;
23720;SDS011;42950;52.134;5.578;2023-03-23T16:01:21;11.35;;;2.35;;
23720;SDS011;42950;52.134;5.578;2023-03-23T16:03:53;11.55;;;2.80;;
23720;SDS011;42950;52.134;5.578;2023-03-23T16:06:26;10.73;;;2.20;;
23720;SDS011;42950;52.134;5.578;2023-03-23T16:08:54;8.82;;;2.13;;
23720;SDS011;42950;52.134;5.578;2023-03-23T16:11:20;8.95;;;2.03;;
23720;SDS011;42950;52.134;5.578;2023-03-23T16:13:47;9.70;;;2.42;;
23720;SDS011;42950;52.134;5.578;2023-03-23T16:16:14;16.65;;;2.63;;
23720;SDS011;42950;52.134;5.578;2023-03-23T16:18:57;10.50;;;2.47;;
23720;SDS011;42950;52.134;5.578;2023-03-23T16:21:22;12.48;;;3.05;;
23720;SDS011;42950;52.134;5.578;2023-03-23T16:23:48;10.02;;;2.78;;
23720;SDS011;42950;52.134;5.578;2023-03-23T16:26:14;10.57;;;3.08;;
23720;SDS011;42950;52.134;5.578;2023-03-23T16:28:40;13.27;;;3.05;;
23720;SDS011;42950;52.134;5.578;2023-03-23T16:31:06;9.10;;;2.80;;
23720;SDS011;42950;52.134;5.578;2023-03-23T16:33:32;12.90;;;2.80;;
23720;SDS011;42950;52.134;5.578;2023-03-23T16:35:57;14.07;;;3.40;;
23720;SDS011;42950;52.134;5.578;2023-03-23T16:38:23;9.88;;;2.67;;
23720;SDS011;42950;52.134;5.578;2023-03-23T16:40:49;7.97;;;2.50;;
23720;SDS011;42950;52.134;5.578;2023-03-23T16:43:15;9.93;;;2.67;;
23720;SDS011;42950;52.134;5.578;2023-03-23T16:45:41;11.63;;;3.17;;
23720;SDS011;42950;52.134;5.578;2023-03-23T16:48:08;10.95;;;2.80;;
23720;SDS011;42950;52.134;5.578;2023-03-23T16:50:35;12.25;;;3.15;;
23720;SDS011;42950;52.134;5.578;2023-03-23T16:53:01;11.85;;;2.72;;
23720;SDS011;42950;52.134;5.578;2023-03-23T16:55:28;9.18;;;2.60;;
23720;SDS011;42950;52.134;5.578;2023-03-23T16:57:55;10.40;;;3.00;;
23720;SDS011;42950;52.134;5.578;2023-03-23T17:00:23;9.40;;;2.38;;
23720;SDS011;42950;52.134;5.578;2023-03-23T17:02:50;11.05;;;3.03;;
23720;SDS011;42950;52.134;5.578;2023-03-23T17:05:18;13.15;;;2.90;;
23720;SDS011;42950;52.134;5.578;2023-03-23T17:07:45;8.65;;;2.90;;